sensor_id;sensor_type;location;lat;lon;timestamp;pressure;altitude;pressure_sealevel;temperature;humidity
6393;BME280;3229;42.674;23.282;2023-05-03T00:01:51;94911.59;;;17.13;40.95
6393;BME280;3229;42.674;23.282;2023-05-03T00:04:19;94901.44;;;17.12;40.90
6393;BME280;3229;42.674;23.282;2023-05-03T00:06:47;94903.38;;;17.10;40.76
6393;BME280;3229;42.674;23.282;2023-05-03T00:09:14;94912.09;;;17.09;40.88
6393;BME280;3229;42.674;23.282;2023-05-03T00:11:41;94905.06;;;17.02;40.59
6393;BME280;3229;42.674;23.282;2023-05-03T00:14:08;94918.44;;;17.06;40.84
6393;BME280;3229;42.674;23.282;2023-05-03T00:16:35;94929.09;;;17.03;40.64
6393;BME280;3229;42.674;23.282;2023-05-03T00:19:02;94902.00;;;16.99;40.66
6393;BME280;3229;42.674;23.282;2023-05-03T00:21:30;94900.28;;;16.91;40.67
6393;BME280;3229;42.674;23.282;2023-05-03T00:23:57;94918.63;;;16.96;40.53
6393;BME280;3229;42.674;23.282;2023-05-03T00:26:24;94912.19;;;16.92;40.59
6393;BME280;3229;42.674;23.282;2023-05-03T00:28:51;94909.78;;;16.91;40.48
6393;BME280;3229;42.674;23.282;2023-05-03T00:31:18;94904.16;;;16.87;40.61
6393;BME280;3229;42.674;23.282;2023-05-03T00:33:45;94916.28;;;16.87;40.54
6393;BME280;3229;42.674;23.282;2023-05-03T00:36:13;94911.63;;;16.82;40.55
6393;BME280;3229;42.674;23.282;2023-05-03T00:38:41;94910.81;;;16.82;40.69
6393;BME280;3229;42.674;23.282;2023-05-03T00:41:09;94911.97;;;16.79;40.71
6393;BME280;3229;42.674;23.282;2023-05-03T00:43:37;94924.25;;;16.77;40.49
6393;BME280;3229;42.674;23.282;2023-05-03T00:46:05;94929.59;;;16.75;40.54
6393;BME280;3229;42.674;23.282;2023-05-03T00:48:32;94924.09;;;16.70;40.61
6393;BME280;3229;42.674;23.282;2023-05-03T00:51:01;94935.22;;;16.71;40.53
6393;BME280;3229;42.674;23.282;2023-05-03T00:53:29;94944.75;;;16.70;40.54
6393;BME280;3229;42.674;23.282;2023-05-03T00:55:59;94949.28;;;16.68;40.53
6393;BME280;3229;42.674;23.282;2023-05-03T00:58:26;94919.81;;;16.54;40.62
6393;BME280;3229;42.674;23.282;2023-05-03T01:00:53;94938.66;;;16.63;40.36
6393;BME280;3229;42.674;23.282;2023-05-03T01:03:20;94934.63;;;16.61;40.50
6393;BME280;3229;42.674;23.282;2023-05-03T01:05:55;94923.69;;;16.59;40.60
6393;BME280;3229;42.674;23.282;2023-05-03T01:08:30;94924.81;;;16.56;40.50
6393;BME280;3229;42.674;23.282;2023-05-03T01:11:03;94893.88;;;16.48;40.50
6393;BME280;3229;42.674;23.282;2023-05-03T01:13:39;94900.81;;;16.47;40.61
6393;BME280;3229;42.674;23.282;2023-05-03T01:16:13;94914.38;;;16.49;40.60
6393;BME280;3229;42.674;23.282;2023-05-03T01:18:44;94894.84;;;16.47;40.53
6393;BME280;3229;42.674;23.282;2023-05-03T01:21:15;94883.09;;;16.36;40.62
6393;BME280;3229;42.674;23.282;2023-05-03T01:23:53;94899.53;;;16.43;40.42
6393;BME280;3229;42.674;23.282;2023-05-03T01:26:23;94897.13;;;16.42;40.46
6393;BME280;3229;42.674;23.282;2023-05-03T01:28:50;94892.13;;;16.40;40.67
6393;BME280;3229;42.674;23.282;2023-05-03T01:31:21;94895.69;;;16.39;40.53
6393;BME280;3229;42.674;23.282;2023-05-03T01:33:57;94883.28;;;16.35;40.66
6393;BME280;3229;42.674;23.282;2023-05-03T01:36:29;94870.56;;;16.33;40.30
6393;BME280;3229;42.674;23.282;2023-05-03T01:38:59;94879.91;;;16.34;40.71
6393;BME280;3229;42.674;23.282;2023-05-03T01:41:30;94872.34;;;16.33;40.62
6393;BME280;3229;42.674;23.282;2023-05-03T01:43:58;94853.19;;;16.19;40.70
6393;BME280;3229;42.674;23.282;2023-05-03T01:46:25;94877.81;;;16.29;40.56
6393;BME280;3229;42.674;23.282;2023-05-03T01:48:52;94861.69;;;16.27;40.66
6393;BME280;3229;42.674;23.282;2023-05-03T01:51:19;94865.41;;;16.25;40.58
6393;BME280;3229;42.674;23.282;2023-05-03T01:53:46;94858.00;;;16.22;40.77
6393;BME280;3229;42.674;23.282;2023-05-03T01:56:14;94849.16;;;16.16;40.81
6393;BME280;3229;42.674;23.282;2023-05-03T01:58:42;94856.72;;;16.18;40.76
6393;BME280;3229;42.674;23.282;2023-05-03T02:01:09;94850.94;;;16.16;40.96
6393;BME280;3229;42.674;23.282;2023-05-03T02:03:36;94851.28;;;16.13;40.73
6393;BME280;3229;42.674;23.282;2023-05-03T02:06:03;94834.34;;;16.10;40.76
6393;BME280;3229;42.674;23.282;2023-05-03T02:08:29;94765.84;;;15.60;40.75
6393;BME280;3229;42.674;23.282;2023-05-03T02:10:56;94840.81;;;16.06;40.88
6393;BME280;3229;42.674;23.282;2023-05-03T02:13:23;94830.03;;;16.02;41.13
6393;BME280;3229;42.674;23.282;2023-05-03T02:15:51;94833.56;;;16.01;41.13
6393;BME280;3229;42.674;23.282;2023-05-03T02:18:19;94824.56;;;15.97;40.98
6393;BME280;3229;42.674;23.282;2023-05-03T02:20:46;94825.53;;;15.96;41.04
6393;BME280;3229;42.674;23.282;2023-05-03T02:23:13;94816.69;;;15.91;41.10
6393;BME280;3229;42.674;23.282;2023-05-03T02:25:40;94832.97;;;15.91;41.20
6393;BME280;3229;42.674;23.282;2023-05-03T02:28:07;94836.53;;;15.90;41.24
6393;BME280;3229;42.674;23.282;2023-05-03T02:30:34;94840.91;;;15.90;41.41
6393;BME280;3229;42.674;23.282;2023-05-03T02:33:02;94832.69;;;15.86;41.15
6393;BME280;3229;42.674;23.282;2023-05-03T02:35:29;94836.56;;;15.82;41.27
6393;BME280;3229;42.674;23.282;2023-05-03T02:37:56;94848.47;;;15.83;41.46
6393;BME280;3229;42.674;23.282;2023-05-03T02:40:22;94856.53;;;15.80;41.49
6393;BME280;3229;42.674;23.282;2023-05-03T02:42:49;94851.38;;;15.80;41.29
6393;BME280;3229;42.674;23.282;2023-05-03T02:45:16;94856.72;;;15.78;41.37
6393;BME280;3229;42.674;23.282;2023-05-03T02:47:43;94855.09;;;15.77;41.44
6393;BME280;3229;42.674;23.282;2023-05-03T02:50:11;94845.13;;;15.74;41.62
6393;BME280;3229;42.674;23.282;2023-05-03T02:52:38;94856.22;;;15.75;41.45
6393;BME280;3229;42.674;23.282;2023-05-03T02:55:05;94846.72;;;15.75;41.56
6393;BME280;3229;42.674;23.282;2023-05-03T02:57:32;94851.06;;;15.75;41.23
6393;BME280;3229;42.674;23.282;2023-05-03T02:59:59;94849.31;;;15.75;41.67
6393;BME280;3229;42.674;23.282;2023-05-03T03:02:26;94849.47;;;15.74;41.48
6393;BME280;3229;42.674;23.282;2023-05-03T03:04:52;94869.31;;;15.73;41.83
6393;BME280;3229;42.674;23.282;2023-05-03T03:07:21;94855.13;;;15.69;41.54
6393;BME280;3229;42.674;23.282;2023-05-03T03:09:48;94856.59;;;15.72;41.68
6393;BME280;3229;42.674;23.282;2023-05-03T03:12:15;94862.53;;;15.72;41.57
6393;BME280;3229;42.674;23.282;2023-05-03T03:14:41;94854.81;;;15.72;41.58
6393;BME280;3229;42.674;23.282;2023-05-03T03:17:10;94839.34;;;15.56;41.47
6393;BME280;3229;42.674;23.282;2023-05-03T03:19:37;94869.31;;;15.73;41.78
6393;BME280;3229;42.674;23.282;2023-05-03T03:22:04;94866.41;;;15.68;41.70
6393;BME280;3229;42.674;23.282;2023-05-03T03:24:32;94856.41;;;15.65;41.77
6393;BME280;3229;42.674;23.282;2023-05-03T03:26:59;94843.84;;;15.54;41.92
6393;BME280;3229;42.674;23.282;2023-05-03T03:29:30;94868.50;;;15.73;41.80
6393;BME280;3229;42.674;23.282;2023-05-03T03:31:57;94869.47;;;15.72;41.72
6393;BME280;3229;42.674;23.282;2023-05-03T03:34:24;94878.00;;;15.72;41.66
6393;BME280;3229;42.674;23.282;2023-05-03T03:36:51;94883.50;;;15.69;41.89
6393;BME280;3229;42.674;23.282;2023-05-03T03:39:17;94891.72;;;15.73;41.82
6393;BME280;3229;42.674;23.282;2023-05-03T03:41:46;94880.72;;;15.71;41.96
6393;BME280;3229;42.674;23.282;2023-05-03T03:44:12;94881.38;;;15.73;41.86
6393;BME280;3229;42.674;23.282;2023-05-03T03:46:39;94878.00;;;15.72;41.92
6393;BME280;3229;42.674;23.282;2023-05-03T03:49:06;94870.59;;;15.69;41.90
6393;BME280;3229;42.674;23.282;2023-05-03T03:51:33;94871.22;;;15.71;41.76
6393;BME280;3229;42.674;23.282;2023-05-03T03:54:00;94831.16;;;15.28;41.98
6393;BME280;3229;42.674;23.282;2023-05-03T03:56:27;94904.59;;;15.73;41.89
6393;BME280;3229;42.674;23.282;2023-05-03T03:58:55;94898.63;;;15.72;41.95
6393;BME280;3229;42.674;23.282;2023-05-03T04:01:22;94906.38;;;15.72;41.82
6393;BME280;3229;42.674;23.282;2023-05-03T04:03:48;94904.59;;;15.73;42.14
6393;BME280;3229;42.674;23.282;2023-05-03T04:06:15;94918.47;;;15.72;41.96
6393;BME280;3229;42.674;23.282;2023-05-03T04:08:42;94914.91;;;15.73;42.06
6393;BME280;3229;42.674;23.282;2023-05-03T04:11:09;94920.22;;;15.71;42.06
6393;BME280;3229;42.674;23.282;2023-05-03T04:13:37;94908.16;;;15.72;42.13
6393;BME280;3229;42.674;23.282;2023-05-03T04:16:06;94909.75;;;15.73;42.07
6393;BME280;3229;42.674;23.282;2023-05-03T04:18:33;94934.09;;;15.70;42.06
6393;BME280;3229;42.674;23.282;2023-05-03T04:21:00;94908.66;;;15.67;41.95
6393;BME280;3229;42.674;23.282;2023-05-03T04:23:27;94901.22;;;15.64;42.22
6393;BME280;3229;42.674;23.282;2023-05-03T04:25:53;94930.22;;;15.74;41.96
6393;BME280;3229;42.674;23.282;2023-05-03T04:28:21;94917.97;;;15.60;42.14
6393;BME280;3229;42.674;23.282;2023-05-03T04:30:50;94933.44;;;15.76;42.19
6393;BME280;3229;42.674;23.282;2023-05-03T04:33:19;94933.59;;;15.75;42.19
6393;BME280;3229;42.674;23.282;2023-05-03T04:35:48;94948.13;;;15.76;42.04
6393;BME280;3229;42.674;23.282;2023-05-03T04:38:15;94948.91;;;15.76;41.93
6393;BME280;3229;42.674;23.282;2023-05-03T04:40:43;94956.66;;;15.76;42.32
6393;BME280;3229;42.674;23.282;2023-05-03T04:43:10;94952.31;;;15.77;42.18
6393;BME280;3229;42.674;23.282;2023-05-03T04:45:37;94966.00;;;15.86;50.58
6393;BME280;3229;42.674;23.282;2023-05-03T04:48:04;94938.66;;;16.24;68.79
6393;BME280;3229;42.674;23.282;2023-05-03T04:50:32;94963.59;;;16.87;66.32
6393;BME280;3229;42.674;23.282;2023-05-03T04:52:59;94955.47;;;17.21;64.50
6393;BME280;3229;42.674;23.282;2023-05-03T04:55:26;94953.19;;;17.49;63.40
6393;BME280;3229;42.674;23.282;2023-05-03T04:57:54;94954.28;;;17.70;60.56
6393;BME280;3229;42.674;23.282;2023-05-03T05:00:20;94965.72;;;17.98;60.54
6393;BME280;3229;42.674;23.282;2023-05-03T05:02:47;94962.63;;;18.18;60.39
6393;BME280;3229;42.674;23.282;2023-05-03T05:05:14;94958.03;;;18.35;58.65
6393;BME280;3229;42.674;23.282;2023-05-03T05:07:42;94985.38;;;18.52;59.51
6393;BME280;3229;42.674;23.282;2023-05-03T05:10:09;94995.84;;;18.73;59.34
6393;BME280;3229;42.674;23.282;2023-05-03T05:12:37;95017.44;;;18.95;58.51
6393;BME280;3229;42.674;23.282;2023-05-03T05:15:05;94995.34;;;19.14;57.58
6393;BME280;3229;42.674;23.282;2023-05-03T05:17:32;94921.94;;;18.77;56.70
6393;BME280;3229;42.674;23.282;2023-05-03T05:19:58;94988.81;;;19.40;56.02
6393;BME280;3229;42.674;23.282;2023-05-03T05:22:25;94980.66;;;19.43;55.37
6393;BME280;3229;42.674;23.282;2023-05-03T05:24:53;95010.66;;;19.67;54.92
6393;BME280;3229;42.674;23.282;2023-05-03T05:27:20;95007.72;;;19.76;54.01
6393;BME280;3229;42.674;23.282;2023-05-03T05:29:47;95002.97;;;19.80;53.13
6393;BME280;3229;42.674;23.282;2023-05-03T05:32:13;94999.16;;;19.76;52.68
6393;BME280;3229;42.674;23.282;2023-05-03T05:34:40;95016.03;;;19.65;48.76
6393;BME280;3229;42.674;23.282;2023-05-03T05:37:08;95019.56;;;19.43;48.22
6393;BME280;3229;42.674;23.282;2023-05-03T05:39:35;95018.16;;;19.25;47.56
6393;BME280;3229;42.674;23.282;2023-05-03T05:42:03;95023.16;;;19.05;46.99
6393;BME280;3229;42.674;23.282;2023-05-03T05:44:30;95024.84;;;18.98;46.71
6393;BME280;3229;42.674;23.282;2023-05-03T05:46:57;95028.72;;;18.88;46.73
6393;BME280;3229;42.674;23.282;2023-05-03T05:49:24;95029.81;;;18.78;46.30
6393;BME280;3229;42.674;23.282;2023-05-03T05:51:50;95032.63;;;18.69;45.67
6393;BME280;3229;42.674;23.282;2023-05-03T05:54:17;95020.59;;;18.61;45.32
6393;BME280;3229;42.674;23.282;2023-05-03T05:56:44;95033.16;;;18.49;45.27
6393;BME280;3229;42.674;23.282;2023-05-03T05:59:12;95020.66;;;18.38;45.17
6393;BME280;3229;42.674;23.282;2023-05-03T06:01:39;95041.81;;;18.27;45.00
6393;BME280;3229;42.674;23.282;2023-05-03T06:04:08;94990.84;;;17.90;44.84
6393;BME280;3229;42.674;23.282;2023-05-03T06:06:35;95021.31;;;18.02;44.71
6393;BME280;3229;42.674;23.282;2023-05-03T06:09:02;94949.59;;;17.50;44.66
6393;BME280;3229;42.674;23.282;2023-05-03T06:11:29;95022.63;;;17.84;44.69
6393;BME280;3229;42.674;23.282;2023-05-03T06:13:56;95027.47;;;17.78;44.74
6393;BME280;3229;42.674;23.282;2023-05-03T06:16:25;95021.38;;;17.71;44.88
6393;BME280;3229;42.674;23.282;2023-05-03T06:18:51;95016.72;;;17.67;44.75
6393;BME280;3229;42.674;23.282;2023-05-03T06:21:18;95014.66;;;17.62;44.76
6393;BME280;3229;42.674;23.282;2023-05-03T06:23:45;95015.63;;;17.61;44.70
6393;BME280;3229;42.674;23.282;2023-05-03T06:26:12;95015.63;;;17.61;44.74
6393;BME280;3229;42.674;23.282;2023-05-03T06:28:41;95004.66;;;17.59;44.54
6393;BME280;3229;42.674;23.282;2023-05-03T06:31:09;95004.94;;;17.64;44.39
6393;BME280;3229;42.674;23.282;2023-05-03T06:33:37;94997.97;;;17.65;44.62
6393;BME280;3229;42.674;23.282;2023-05-03T06:36:04;95004.59;;;17.67;44.40
6393;BME280;3229;42.674;23.282;2023-05-03T06:38:32;94999.88;;;17.71;44.52
6393;BME280;3229;42.674;23.282;2023-05-03T06:40:59;94975.31;;;17.75;44.40
6393;BME280;3229;42.674;23.282;2023-05-03T06:43:26;94983.16;;;17.82;44.10
6393;BME280;3229;42.674;23.282;2023-05-03T06:45:52;94987.66;;;17.88;44.09
6393;BME280;3229;42.674;23.282;2023-05-03T06:48:19;94968.03;;;17.93;44.07
6393;BME280;3229;42.674;23.282;2023-05-03T06:50:48;94965.25;;;17.95;43.72
6393;BME280;3229;42.674;23.282;2023-05-03T06:53:15;94958.81;;;17.91;43.88
6393;BME280;3229;42.674;23.282;2023-05-03T06:55:42;94963.91;;;17.99;43.98
6393;BME280;3229;42.674;23.282;2023-05-03T06:58:10;94956.81;;;18.01;43.87
6393;BME280;3229;42.674;23.282;2023-05-03T07:00:37;94949.97;;;17.85;43.81
6393;BME280;3229;42.674;23.282;2023-05-03T07:03:04;94954.03;;;18.02;43.69
6393;BME280;3229;42.674;23.282;2023-05-03T07:05:31;94948.59;;;17.97;43.51
6393;BME280;3229;42.674;23.282;2023-05-03T07:07:59;94949.47;;;18.04;43.66
6393;BME280;3229;42.674;23.282;2023-05-03T07:10:26;94961.25;;;18.07;43.63
6393;BME280;3229;42.674;23.282;2023-05-03T07:12:55;94955.72;;;18.10;43.54
6393;BME280;3229;42.674;23.282;2023-05-03T07:15:22;94961.53;;;18.12;43.49
6393;BME280;3229;42.674;23.282;2023-05-03T07:17:49;94956.72;;;18.09;43.27
6393;BME280;3229;42.674;23.282;2023-05-03T07:20:15;94952.69;;;18.21;43.18
6393;BME280;3229;42.674;23.282;2023-05-03T07:22:42;94957.16;;;18.27;43.17
6393;BME280;3229;42.674;23.282;2023-05-03T07:25:10;94963.06;;;18.36;43.13
6393;BME280;3229;42.674;23.282;2023-05-03T07:27:39;94962.97;;;18.44;43.14
6393;BME280;3229;42.674;23.282;2023-05-03T07:30:07;94992.44;;;18.58;42.91
6393;BME280;3229;42.674;23.282;2023-05-03T07:32:34;94973.31;;;18.59;42.58
6393;BME280;3229;42.674;23.282;2023-05-03T07:35:01;94991.91;;;18.77;42.68
6393;BME280;3229;42.674;23.282;2023-05-03T07:37:29;94989.06;;;18.87;42.49
6393;BME280;3229;42.674;23.282;2023-05-03T07:39:56;94993.94;;;18.97;42.28
6393;BME280;3229;42.674;23.282;2023-05-03T07:42:24;94986.66;;;19.07;42.35
6393;BME280;3229;42.674;23.282;2023-05-03T07:44:51;94985.41;;;19.18;42.19
6393;BME280;3229;42.674;23.282;2023-05-03T07:47:19;94992.25;;;19.25;42.10
6393;BME280;3229;42.674;23.282;2023-05-03T07:49:46;95005.47;;;19.30;41.96
6393;BME280;3229;42.674;23.282;2023-05-03T07:52:15;94991.56;;;19.38;42.04
6393;BME280;3229;42.674;23.282;2023-05-03T07:54:42;94999.25;;;19.46;41.85
6393;BME280;3229;42.674;23.282;2023-05-03T07:57:10;94990.53;;;19.54;41.84
6393;BME280;3229;42.674;23.282;2023-05-03T07:59:38;95000.63;;;19.64;41.60
6393;BME280;3229;42.674;23.282;2023-05-03T08:02:05;94990.13;;;19.72;41.67
6393;BME280;3229;42.674;23.282;2023-05-03T08:04:32;94986.81;;;19.78;41.71
6393;BME280;3229;42.674;23.282;2023-05-03T08:06:59;95007.91;;;19.96;41.50
6393;BME280;3229;42.674;23.282;2023-05-03T08:09:26;95007.38;;;20.08;41.34
6393;BME280;3229;42.674;23.282;2023-05-03T08:11:53;94974.44;;;20.08;41.29
6393;BME280;3229;42.674;23.282;2023-05-03T08:14:20;94994.59;;;20.34;40.86
6393;BME280;3229;42.674;23.282;2023-05-03T08:16:49;94999.31;;;20.52;41.04
6393;BME280;3229;42.674;23.282;2023-05-03T08:19:15;95001.63;;;20.75;40.59
6393;BME280;3229;42.674;23.282;2023-05-03T08:21:42;95000.56;;;21.04;40.54
6393;BME280;3229;42.674;23.282;2023-05-03T08:24:11;95003.69;;;21.34;40.38
6393;BME280;3229;42.674;23.282;2023-05-03T08:26:38;95010.53;;;21.62;40.19
6393;BME280;3229;42.674;23.282;2023-05-03T08:29:05;95009.38;;;21.91;39.99
6393;BME280;3229;42.674;23.282;2023-05-03T08:31:32;95006.41;;;22.20;39.71
6393;BME280;3229;42.674;23.282;2023-05-03T08:34:00;94998.31;;;22.55;39.82
6393;BME280;3229;42.674;23.282;2023-05-03T08:36:28;94996.81;;;22.92;39.25
6393;BME280;3229;42.674;23.282;2023-05-03T08:38:56;95015.28;;;23.36;38.83
6393;BME280;3229;42.674;23.282;2023-05-03T08:41:27;95017.06;;;23.80;38.75
6393;BME280;3229;42.674;23.282;2023-05-03T08:43:55;95000.66;;;24.23;38.42
6393;BME280;3229;42.674;23.282;2023-05-03T08:46:22;94989.41;;;24.66;37.93
6393;BME280;3229;42.674;23.282;2023-05-03T08:48:51;94998.81;;;25.03;38.05
6393;BME280;3229;42.674;23.282;2023-05-03T08:51:20;94984.59;;;25.18;37.46
6393;BME280;3229;42.674;23.282;2023-05-03T08:53:47;95006.34;;;25.48;37.38
6393;BME280;3229;42.674;23.282;2023-05-03T08:56:17;95011.28;;;25.57;37.54
6393;BME280;3229;42.674;23.282;2023-05-03T08:58:46;95010.47;;;25.56;37.67
6393;BME280;3229;42.674;23.282;2023-05-03T09:01:13;95011.94;;;25.52;37.50
6393;BME280;3229;42.674;23.282;2023-05-03T09:03:47;95010.19;;;25.46;37.61
6393;BME280;3229;42.674;23.282;2023-05-03T09:06:20;94968.00;;;25.06;37.72
6393;BME280;3229;42.674;23.282;2023-05-03T09:08:47;95003.63;;;25.25;37.94
6393;BME280;3229;42.674;23.282;2023-05-03T09:11:21;95019.63;;;25.35;37.56
6393;BME280;3229;42.674;23.282;2023-05-03T09:13:49;95003.81;;;25.42;37.40
6393;BME280;3229;42.674;23.282;2023-05-03T09:16:24;95013.09;;;25.56;37.40
6393;BME280;3229;42.674;23.282;2023-05-03T09:19:02;95001.66;;;25.81;36.68
6393;BME280;3229;42.674;23.282;2023-05-03T09:21:32;94991.00;;;26.06;36.85
6393;BME280;3229;42.674;23.282;2023-05-03T09:23:59;94995.34;;;26.23;36.44
6393;BME280;3229;42.674;23.282;2023-05-03T09:26:30;94988.28;;;26.36;36.51
6393;BME280;3229;42.674;23.282;2023-05-03T09:28:58;94987.03;;;26.38;36.12
6393;BME280;3229;42.674;23.282;2023-05-03T09:31:26;94983.59;;;26.38;36.45
6393;BME280;3229;42.674;23.282;2023-05-03T09:33:53;94972.78;;;26.34;36.45
6393;BME280;3229;42.674;23.282;2023-05-03T09:36:20;94981.44;;;26.35;36.27
6393;BME280;3229;42.674;23.282;2023-05-03T09:38:50;94963.97;;;26.40;35.97
6393;BME280;3229;42.674;23.282;2023-05-03T09:41:25;94965.94;;;26.45;36.01
6393;BME280;3229;42.674;23.282;2023-05-03T09:43:53;94948.34;;;26.34;35.75
6393;BME280;3229;42.674;23.282;2023-05-03T09:46:22;94943.69;;;26.36;35.59
6393;BME280;3229;42.674;23.282;2023-05-03T09:48:50;94958.66;;;26.47;35.81
6393;BME280;3229;42.674;23.282;2023-05-03T09:51:21;94955.19;;;26.58;35.46
6393;BME280;3229;42.674;23.282;2023-05-03T09:53:50;94953.13;;;26.72;35.04
6393;BME280;3229;42.674;23.282;2023-05-03T09:56:17;94954.13;;;26.83;35.34
6393;BME280;3229;42.674;23.282;2023-05-03T09:58:51;94941.34;;;26.86;35.18
6393;BME280;3229;42.674;23.282;2023-05-03T10:01:18;94945.81;;;26.86;35.29
6393;BME280;3229;42.674;23.282;2023-05-03T10:03:48;94888.47;;;26.42;34.87
6393;BME280;3229;42.674;23.282;2023-05-03T10:06:23;94946.72;;;26.68;35.01
6393;BME280;3229;42.674;23.282;2023-05-03T10:08:59;94947.78;;;26.55;35.47
6393;BME280;3229;42.674;23.282;2023-05-03T10:11:27;94929.00;;;26.35;35.25
6393;BME280;3229;42.674;23.282;2023-05-03T10:13:54;94953.72;;;26.39;35.43
6393;BME280;3229;42.674;23.282;2023-05-03T10:16:25;94939.91;;;26.43;34.84
6393;BME280;3229;42.674;23.282;2023-05-03T10:18:57;94936.16;;;26.51;35.00
6393;BME280;3229;42.674;23.282;2023-05-03T10:21:34;94924.84;;;26.62;35.13
6393;BME280;3229;42.674;23.282;2023-05-03T10:24:12;94919.50;;;26.69;35.05
6393;BME280;3229;42.674;23.282;2023-05-03T10:26:40;94914.94;;;26.64;35.14
6393;BME280;3229;42.674;23.282;2023-05-03T10:32:31;94899.41;;;26.63;35.15
6393;BME280;3229;42.674;23.282;2023-05-03T10:35:02;94903.16;;;26.67;35.08
6393;BME280;3229;42.674;23.282;2023-05-03T10:37:31;94899.84;;;26.71;34.99
6393;BME280;3229;42.674;23.282;2023-05-03T10:40:10;94894.81;;;26.82;34.66
6393;BME280;3229;42.674;23.282;2023-05-03T10:42:38;94900.47;;;26.90;34.92
6393;BME280;3229;42.674;23.282;2023-05-03T10:45:07;94870.28;;;26.76;34.59
6393;BME280;3229;42.674;23.282;2023-05-03T10:47:36;94893.41;;;26.91;34.78
6393;BME280;3229;42.674;23.282;2023-05-03T10:50:23;94887.25;;;26.85;34.91
6393;BME280;3229;42.674;23.282;2023-05-03T10:52:50;94865.88;;;26.65;34.95
6393;BME280;3229;42.674;23.282;2023-05-03T10:55:20;94888.78;;;26.69;35.08
6393;BME280;3229;42.674;23.282;2023-05-03T10:57:51;94899.06;;;26.59;34.90
6393;BME280;3229;42.674;23.282;2023-05-03T11:00:23;94890.66;;;26.45;35.28
6393;BME280;3229;42.674;23.282;2023-05-03T11:05:43;94882.94;;;26.15;35.53
6393;BME280;3229;42.674;23.282;2023-05-03T11:08:12;94879.75;;;26.13;35.70
6393;BME280;3229;42.674;23.282;2023-05-03T11:10:40;94886.25;;;26.11;35.59
6393;BME280;3229;42.674;23.282;2023-05-03T11:13:07;94860.72;;;25.94;35.56
6393;BME280;3229;42.674;23.282;2023-05-03T11:15:34;94881.47;;;26.08;35.31
6393;BME280;3229;42.674;23.282;2023-05-03T11:18:01;94882.94;;;26.15;35.21
6393;BME280;3229;42.674;23.282;2023-05-03T11:20:28;94886.34;;;26.16;35.54
6393;BME280;3229;42.674;23.282;2023-05-03T11:22:55;94882.59;;;26.12;35.38
6393;BME280;3229;42.674;23.282;2023-05-03T11:25:22;94878.03;;;26.07;35.55
6393;BME280;3229;42.674;23.282;2023-05-03T11:27:50;94882.16;;;26.03;35.36
6393;BME280;3229;42.674;23.282;2023-05-03T11:30:17;94866.75;;;25.95;35.57
6393;BME280;3229;42.674;23.282;2023-05-03T11:32:44;94859.94;;;25.94;35.58
6393;BME280;3229;42.674;23.282;2023-05-03T11:35:12;94870.91;;;25.91;35.37
6393;BME280;3229;42.674;23.282;2023-05-03T11:37:40;94866.44;;;25.91;35.67
6393;BME280;3229;42.674;23.282;2023-05-03T11:40:13;94865.41;;;25.92;35.34
6393;BME280;3229;42.674;23.282;2023-05-03T11:42:51;94863.69;;;25.98;35.49
6393;BME280;3229;42.674;23.282;2023-05-03T11:45:19;94862.31;;;26.07;35.44
6393;BME280;3229;42.674;23.282;2023-05-03T11:47:46;94858.31;;;26.16;35.17
6393;BME280;3229;42.674;23.282;2023-05-03T11:50:14;94853.28;;;26.26;35.33
6393;BME280;3229;42.674;23.282;2023-05-03T11:52:40;94836.78;;;26.26;35.03
6393;BME280;3229;42.674;23.282;2023-05-03T11:55:08;94838.00;;;26.35;35.17
6393;BME280;3229;42.674;23.282;2023-05-03T11:57:35;94837.84;;;26.42;34.96
6393;BME280;3229;42.674;23.282;2023-05-03T12:00:11;94831.94;;;26.46;35.25
6393;BME280;3229;42.674;23.282;2023-05-03T12:02:42;94817.09;;;26.52;35.09
6393;BME280;3229;42.674;23.282;2023-05-03T12:05:09;94823.00;;;26.59;35.18
6393;BME280;3229;42.674;23.282;2023-05-03T12:07:36;94821.81;;;26.67;34.92
6393;BME280;3229;42.674;23.282;2023-05-03T12:10:16;94821.22;;;26.76;34.71
6393;BME280;3229;42.674;23.282;2023-05-03T12:12:56;94829.00;;;26.71;34.80
6393;BME280;3229;42.674;23.282;2023-05-03T12:15:29;94820.16;;;26.61;35.29
6393;BME280;3229;42.674;23.282;2023-05-03T12:17:57;94833.63;;;26.52;35.22
6393;BME280;3229;42.674;23.282;2023-05-03T12:20:26;94821.91;;;26.43;35.16
6393;BME280;3229;42.674;23.282;2023-05-03T12:22:56;94817.56;;;26.37;35.60
6393;BME280;3229;42.674;23.282;2023-05-03T12:25:23;94815.53;;;26.27;35.29
6393;BME280;3229;42.674;23.282;2023-05-03T12:27:51;94818.78;;;26.18;35.79
6393;BME280;3229;42.674;23.282;2023-05-03T12:30:19;94781.47;;;25.87;35.74
6393;BME280;3229;42.674;23.282;2023-05-03T12:32:47;94797.88;;;25.83;35.63
6393;BME280;3229;42.674;23.282;2023-05-03T12:35:15;94795.00;;;25.61;36.38
6393;BME280;3229;42.674;23.282;2023-05-03T12:37:42;94823.00;;;25.60;36.22
6393;BME280;3229;42.674;23.282;2023-05-03T12:40:10;94821.19;;;25.37;36.38
6393;BME280;3229;42.674;23.282;2023-05-03T12:42:38;94821.34;;;25.12;36.69
6393;BME280;3229;42.674;23.282;2023-05-03T12:45:05;94817.66;;;24.90;36.87
6393;BME280;3229;42.674;23.282;2023-05-03T12:47:33;94823.97;;;24.70;37.00
6393;BME280;3229;42.674;23.282;2023-05-03T12:50:02;94821.03;;;24.48;37.26
6393;BME280;3229;42.674;23.282;2023-05-03T12:52:30;94820.44;;;24.28;37.58
6393;BME280;3229;42.674;23.282;2023-05-03T12:54:57;94819.31;;;24.06;37.83
6393;BME280;3229;42.674;23.282;2023-05-03T12:57:24;94810.88;;;23.85;38.27
6393;BME280;3229;42.674;23.282;2023-05-03T12:59:51;94806.84;;;23.64;38.34
6393;BME280;3229;42.674;23.282;2023-05-03T13:02:19;94801.00;;;23.44;38.49
6393;BME280;3229;42.674;23.282;2023-05-03T13:04:46;94811.38;;;23.25;38.92
6393;BME280;3229;42.674;23.282;2023-05-03T13:07:16;94807.50;;;23.10;39.30
6393;BME280;3229;42.674;23.282;2023-05-03T13:09:43;94809.22;;;22.97;39.35
6393;BME280;3229;42.674;23.282;2023-05-03T13:12:10;94791.25;;;22.76;39.42
6393;BME280;3229;42.674;23.282;2023-05-03T13:14:38;94812.91;;;22.76;39.71
6393;BME280;3229;42.674;23.282;2023-05-03T13:17:05;94808.78;;;22.62;39.95
6393;BME280;3229;42.674;23.282;2023-05-03T13:19:32;94817.91;;;22.46;40.42
6393;BME280;3229;42.674;23.282;2023-05-03T13:21:59;94817.16;;;22.33;40.67